Flight Track Log - Related Links

Times and Time Zones

All times are in EDT time to prevent confusion due to time zone crossing. See the N745TT flight status page for this flight to view local times or setup timezone preferences in your user account.

Time Position Orientation Groundspeed Altitude Reporting Facility
EDT Latitude Longitude Course Direction KTS MPH feet Rate Location/Type
02:22PM 42.1978 -76.7892 141° Southeast 198 228 6,100  Level New York Center
02:23PM 42.1425 -76.7281 141° Southeast 189 217 7,600 1,950 Climbing New York Center
02:24PM 42.0794 -76.6553 139° Southeast 254 292 10,000 1,700 Climbing New York Center
02:25PM 42.0106 -76.5739 139° Southeast 284 327 11,000 500 Climbing New York Center
02:26PM 41.9300 -76.4747 138° Southeast 344 396 11,000  Level New York Center
02:27PM 41.8494 -76.3758 138° Southeast 388 447 11,000 -50 Level New York Center
02:28PM 41.7644 -76.2769 139° Southeast 408 470 10,900  Descending New York Center
02:29PM 41.6836 -76.1786 138° Southeast 413 475 11,000  Climbing New York Center
02:30PM 41.6083 -76.0922 139° Southeast 408 470 10,900 -450 Descending New York Center
02:31PM 41.5292 -75.9972 138° Southeast 396 456 10,100 -1,650 Descending New York Center
02:32PM 41.4561 -75.9083 138° Southeast 363 418 7,600 -1,950 Descending New York Center
02:33PM 41.3986 -75.8403 138° Southeast 315 362 6,200 -800 Descending New York Center
02:34PM 41.3431 -75.7756 139° Southeast 283 326 6,000 -100 Descending New York Center
02:35PM 41.2783 -75.7292 152° Southeast 263 303 6,000  Level New York Center
02:36PM 41.2089 -75.6967 161° South 253 291 6,000  Level New York Center
02:37PM 41.1417 -75.6614 158° South 260 299 6,000 -47 Level New York Center
02:38PM 41.0511 -75.6356 168° South 285 328 5,900  Descending New York Center
02:39PM 40.9931 -75.6286 175° South 288 331 6,000 54 Climbing New York Center
02:40PM 40.9078 -75.6197 175° South 288 331 6,000 -435 Level New York Center
02:41PM 40.8247 -75.6139 177° South 282 325 5,100 -1,150 Descending New York Center
02:42PM 40.7647 -75.6042 173° South 277 319 3,700 -1,241 Descending New York Center
02:43PM 40.6986 -75.5886 170° South 260 299 2,700 -750 Descending New York Center
02:44PM 40.6400 -75.5489 153° Southeast 226 260 2,200 -700 Descending New York Center
02:45PM 40.6169 -75.4981 121° Southeast 184 212 1,300 -500 Descending New York Center
02:46PM 40.5850 -75.4603 138° Southeast 173 199 1,200 -100 Descending New York Center

Login

Don't have an account? Register now (free) for customized features, flight alerts, and more!